Time;durP1;ratioP1;P1;durP2;ratioP2;P2;SDS_P1;SDS_P2;PMS_P1;PMS_P2;Temp;Humidity;BMP_temperature;BMP_pressure;BME280_temperature;BME280_humidity;BME280_pressure;Samples;Min_cycle;Max_cycle;Signal;HPM_P1;HPM_P2
2021/04/12 00:02:46;;;;;;;11.20;7.90;;;4.60;92.10;;;;;;8405635;28;21142;-75
2021/04/12 00:07:00;;;;;;;18.07;6.47;;;4.60;92.10;;;;;;8413568;28;20448;-74
2021/04/12 00:11:12;;;;;;;10.23;6.87;;;4.60;92.30;;;;;;8402846;28;20331;-75
2021/04/12 00:15:27;;;;;;;9.07;6.93;;;4.60;92.10;;;;;;8403390;28;20444;-75
2021/04/12 00:19:34;;;;;;;9.30;5.57;;;4.60;92.00;;;;;;8415034;28;20962;-75
2021/04/12 00:23:45;;;;;;;9.10;6.60;;;4.50;92.00;;;;;;8409189;28;20466;-75
2021/04/12 00:27:55;;;;;;;10.10;6.40;;;4.50;92.00;;;;;;8403816;28;20468;-75
2021/04/12 00:32:06;;;;;;;14.17;6.73;;;4.50;92.00;;;;;;8405292;28;20472;-75
2021/04/12 00:36:34;;;;;;;13.57;7.97;;;4.50;92.10;;;;;;8427773;28;20497;-75
2021/04/12 00:41:18;;;;;;;8.67;7.10;;;4.50;92.10;;;;;;8402623;28;20456;-75
2021/04/12 00:45:57;;;;;;;15.77;8.10;;;4.50;92.10;;;;;;8406925;28;20476;-75
2021/04/12 00:50:23;;;;;;;10.27;8.80;;;4.50;92.10;;;;;;8444191;28;20445;-76
2021/04/12 00:54:45;;;;;;;19.57;9.17;;;4.50;92.10;;;;;;8416934;28;20453;-75
2021/04/12 00:59:01;;;;;;;14.40;9.50;;;4.50;92.20;;;;;;8423567;28;20538;-75
2021/04/12 01:03:29;;;;;;;15.10;8.47;;;4.40;92.10;;;;;;8436230;28;20435;-75
2021/04/12 01:07:49;;;;;;;34.47;10.67;;;4.40;92.10;;;;;;8428631;28;20562;-75
2021/04/12 01:12:28;;;;;;;23.97;9.97;;;4.40;92.30;;;;;;8435894;28;20400;-75
2021/04/12 01:17:06;;;;;;;15.77;10.00;;;4.40;92.30;;;;;;8418382;28;20457;-75
2021/04/12 01:21:44;;;;;;;21.50;10.77;;;4.30;92.10;;;;;;8402068;28;20436;-75
2021/04/12 01:26:03;;;;;;;15.60;11.33;;;4.20;92.10;;;;;;8431246;28;20511;-75
2021/04/12 01:30:31;;;;;;;20.80;11.37;;;4.20;92.20;;;;;;8407042;28;20497;-74
2021/04/12 01:35:19;;;;;;;14.83;9.70;;;4.10;92.30;;;;;;8435066;28;20462;-75
2021/04/12 01:39:49;;;;;;;21.77;10.27;;;4.10;92.40;;;;;;8420355;28;20967;-75
2021/04/12 01:44:06;;;;;;;21.13;12.20;;;4.10;92.40;;;;;;8430540;28;20459;-75
2021/04/12 01:48:13;;;;;;;17.23;10.50;;;4.00;92.60;;;;;;8417546;28;20465;-75
2021/04/12 01:52:54;;;;;;;19.83;11.10;;;4.10;92.60;;;;;;8425722;28;20806;-75
2021/04/12 01:57:24;;;;;;;18.23;11.10;;;4.10;92.60;;;;;;8424668;28;20425;-75
2021/04/12 02:01:51;;;;;;;17.83;10.40;;;4.10;92.60;;;;;;8405200;28;21128;-75
2021/04/12 02:06:02;;;;;;;15.87;9.80;;;4.10;92.50;;;;;;8431463;28;21030;-75
2021/04/12 02:10:21;;;;;;;18.03;10.47;;;4.00;92.30;;;;;;8404589;28;20461;-75
2021/04/12 02:14:34;;;;;;;19.73;11.37;;;4.00;92.20;;;;;;8399258;28;21024;-75
2021/04/12 02:18:51;;;;;;;21.37;13.23;;;4.00;92.20;;;;;;8429820;28;20440;-75
2021/04/12 02:23:11;;;;;;;13.63;8.97;;;3.90;92.40;;;;;;8412778;28;20430;-75
2021/04/12 02:27:42;;;;;;;23.80;13.30;;;3.90;92.40;;;;;;8405543;28;20587;-75
2021/04/12 02:31:46;;;;;;;22.27;9.57;;;3.90;92.40;;;;;;8407915;28;20453;-75
2021/04/12 02:36:07;;;;;;;18.10;9.83;;;3.90;92.40;;;;;;8405356;28;20941;-75
2021/04/12 02:40:21;;;;;;;15.53;10.70;;;3.90;92.40;;;;;;8434098;28;20424;-75
2021/04/12 02:44:43;;;;;;;16.73;10.50;;;3.90;92.50;;;;;;8410435;28;21088;-75
2021/04/12 02:49:18;;;;;;;21.00;10.90;;;3.90;92.50;;;;;;8409173;28;20428;-75
2021/04/12 02:53:55;;;;;;;14.70;9.67;;;3.90;92.50;;;;;;8419860;28;20429;-75
2021/04/12 02:58:48;;;;;;;18.63;10.87;;;3.90;92.50;;;;;;8419952;28;20436;-75
2021/04/12 03:03:34;;;;;;;33.43;11.90;;;3.90;92.60;;;;;;8420386;28;20459;-75
2021/04/12 03:07:54;;;;;;;18.90;10.40;;;3.90;92.60;;;;;;8382522;28;20569;-75
2021/04/12 03:12:29;;;;;;;14.90;9.60;;;3.80;92.40;;;;;;8403444;28;20422;-75
2021/04/12 03:16:58;;;;;;;14.13;10.43;;;3.80;92.50;;;;;;8360828;28;20469;-76
2021/04/12 03:21:23;;;;;;;17.00;8.40;;;3.80;92.40;;;;;;8419256;28;20440;-76
2021/04/12 03:26:01;;;;;;;18.23;8.73;;;3.70;92.40;;;;;;8416853;28;21044;-76
2021/04/12 03:30:10;;;;;;;21.50;10.77;;;3.70;92.30;;;;;;8420711;28;20444;-75
2021/04/12 03:34:23;;;;;;;15.53;10.53;;;3.70;92.30;;;;;;8398470;28;20450;-76
2021/04/12 03:38:36;;;;;;;9.70;8.27;;;3.60;92.30;;;;;;8399345;28;20450;-76
2021/04/12 03:43:05;;;;;;;13.47;9.40;;;3.60;92.40;;;;;;8398826;28;20453;-77
2021/04/12 03:47:39;;;;;;;18.00;9.67;;;3.60;92.40;;;;;;8396679;28;20885;-75
2021/04/12 03:51:43;;;;;;;16.53;9.57;;;3.60;92.40;;;;;;8411368;28;20436;-75
2021/04/12 03:56:14;;;;;;;16.90;8.60;;;3.50;92.20;;;;;;8430003;28;20562;-75
2021/04/12 04:00:44;;;;;;;17.13;8.63;;;3.60;92.30;;;;;;8416666;28;20433;-76
2021/04/12 04:05:14;;;;;;;17.00;9.80;;;3.50;92.30;;;;;;8421384;28;20448;-75
2021/04/12 04:09:21;;;;;;;16.87;9.80;;;3.50;92.40;;;;;;8408912;28;20467;-75
2021/04/12 04:13:42;;;;;;;16.53;9.50;;;3.50;92.40;;;;;;8405497;28;20472;-77
2021/04/12 04:18:07;;;;;;;23.07;10.23;;;3.50;92.30;;;;;;8409448;28;20433;-76
2021/04/12 04:22:32;;;;;;;17.07;8.80;;;3.50;92.20;;;;;;8404556;28;20440;-75
2021/04/12 04:26:52;;;;;;;18.13;10.13;;;3.50;92.20;;;;;;8420539;28;20447;-76
2021/04/12 04:31:27;;;;;;;12.23;8.17;;;3.50;92.10;;;;;;8426446;28;20830;-76
2021/04/12 04:36:18;;;;;;;27.10;10.70;;;3.50;91.90;;;;;;8415694;28;20436;-76
2021/04/12 04:40:37;;;;;;;20.57;11.03;;;3.40;91.80;;;;;;8398048;28;20438;-75
2021/04/12 04:45:02;;;;;;;14.97;9.87;;;3.30;91.70;;;;;;8383707;28;20894;-76
2021/04/12 04:49:11;;;;;;;16.07;10.70;;;3.20;91.70;;;;;;8402587;28;20467;-74
2021/04/12 04:53:40;;;;;;;23.53;11.90;;;3.20;91.70;;;;;;8396512;28;20444;-75
2021/04/12 04:57:55;;;;;;;18.10;12.23;;;3.20;91.80;;;;;;8391936;28;20451;-74
2021/04/12 05:02:26;;;;;;;36.77;14.10;;;3.10;91.90;;;;;;8402682;28;20546;-74
2021/04/12 05:06:59;;;;;;;19.13;11.73;;;3.10;91.90;;;;;;8391561;28;20522;-74
2021/04/12 05:11:12;;;;;;;30.40;15.67;;;3.10;92.00;;;;;;8393566;28;20486;-75
2021/04/12 05:15:34;;;;;;;27.33;16.10;;;3.10;92.00;;;;;;8392496;28;20471;-75
2021/04/12 05:20:02;;;;;;;24.20;15.90;;;3.00;92.10;;;;;;8390478;28;20497;-75
2021/04/12 05:24:26;;;;;;;27.50;15.60;;;3.10;92.50;;;;;;8386314;28;20558;-75
2021/04/12 05:29:12;;;;;;;19.13;13.27;;;3.20;92.50;;;;;;8407410;28;20445;-75
2021/04/12 05:33:42;;;;;;;33.20;14.17;;;3.30;92.40;;;;;;8388782;28;20475;-75
2021/04/12 05:37:57;;;;;;;37.33;15.70;;;3.30;92.50;;;;;;8391918;28;20444;-75
2021/04/12 05:42:24;;;;;;;25.33;13.73;;;3.40;92.50;;;;;;8395841;28;20442;-74
2021/04/12 05:46:50;;;;;;;26.03;14.03;;;3.40;92.60;;;;;;8409362;28;20465;-75
2021/04/12 05:51:13;;;;;;;23.43;13.57;;;3.50;92.60;;;;;;8391207;28;20452;-75
2021/04/12 05:55:25;;;;;;;22.57;13.70;;;3.70;92.80;;;;;;8401486;28;20493;-74
2021/04/12 06:00:07;;;;;;;19.10;13.53;;;3.80;92.80;;;;;;8393824;28;21249;-74
2021/04/12 06:04:30;;;;;;;28.60;15.33;;;3.90;92.70;;;;;;8386570;28;20502;-75
2021/04/12 06:08:56;;;;;;;21.80;13.50;;;4.10;92.70;;;;;;8392065;28;20469;-75
2021/04/12 06:13:34;;;;;;;29.00;15.60;;;4.20;92.70;;;;;;8403834;28;20473;-75
2021/04/12 06:18:17;;;;;;;25.67;14.77;;;4.40;92.50;;;;;;8390507;28;20530;-75
2021/04/12 06:22:43;;;;;;;22.20;14.80;;;4.50;92.20;;;;;;8383533;28;20466;-75
2021/04/12 06:27:06;;;;;;;23.83;14.63;;;4.70;92.10;;;;;;8394749;28;21085;-76
2021/04/12 06:31:43;;;;;;;28.97;16.13;;;4.70;92.00;;;;;;8391896;28;20466;-75
2021/04/12 06:36:08;;;;;;;29.13;16.43;;;4.90;91.90;;;;;;8364458;28;21022;-76
2021/04/12 06:40:44;;;;;;;34.47;17.43;;;5.00;91.90;;;;;;8403671;28;20991;-75
2021/04/12 06:45:16;;;;;;;24.20;17.47;;;5.20;91.80;;;;;;8388643;28;20458;-75
2021/04/12 06:49:58;;;;;;;22.87;16.40;;;5.40;91.80;;;;;;8416160;28;20449;-75
2021/04/12 06:54:31;;;;;;;17.03;12.73;;;5.60;92.60;;;;;;8390484;28;20532;-75
2021/04/12 06:58:54;;;;;;;18.10;11.90;;;6.20;94.50;;;;;;8390386;28;20488;-75
2021/04/12 07:03:23;;;;;;;18.70;11.77;;;7.00;95.10;;;;;;8389041;28;20458;-76
2021/04/12 07:07:43;;;;;;;15.13;9.10;;;8.10;93.20;;;;;;8392910;28;20499;-75
2021/04/12 07:12:24;;;;;;;15.30;8.57;;;9.40;90.10;;;;;;8386187;28;20484;-75
2021/04/12 07:16:59;;;;;;;9.43;6.50;;;10.60;80.40;;;;;;8387540;28;20440;-75
2021/04/12 07:21:41;;;;;;;7.70;6.70;;;11.30;74.10;;;;;;8401623;28;20806;-76
2021/04/12 07:25:49;;;;;;;11.70;7.80;;;11.70;71.80;;;;;;8392296;28;20468;-75
2021/04/12 07:29:49;;;;;;;8.60;6.63;;;12.30;69.90;;;;;;8387309;28;20449;-75
2021/04/12 07:34:05;;;;;;;6.90;5.80;;;12.60;67.90;;;;;;8413362;28;20555;-75
2021/04/12 07:38:52;;;;;;;7.43;6.50;;;12.00;68.80;;;;;;8390313;28;20483;-75
2021/04/12 07:43:22;;;;;;;6.93;5.23;;;11.40;70.50;;;;;;8387847;28;20453;-76
2021/04/12 07:47:39;;;;;;;7.97;5.20;;;10.70;69.30;;;;;;8408264;28;20462;-75
2021/04/12 07:52:02;;;;;;;8.50;5.50;;;10.10;70.60;;;;;;8409238;28;20951;-75
2021/04/12 07:56:33;;;;;;;7.33;4.67;;;9.80;73.10;;;;;;8373999;28;20456;-77
2021/04/12 08:01:32;;;;;;;5.97;4.67;;;11.00;69.50;;;;;;8406166;28;20534;-75
2021/04/12 08:06:00;;;;;;;8.63;5.13;;;12.70;67.10;;;;;;8361124;28;20837;-76
2021/04/12 08:10:39;;;;;;;4.53;3.60;;;13.20;64.20;;;;;;8388578;28;20467;-75
2021/04/12 08:15:14;;;;;;;5.17;4.23;;;13.60;61.60;;;;;;8388427;28;20487;-75
2021/04/12 08:19:30;;;;;;;6.23;2.97;;;13.40;62.20;;;;;;8401121;28;20478;-75
2021/04/12 08:23:49;;;;;;;5.67;3.10;;;12.90;60.60;;;;;;8395633;28;20454;-75
2021/04/12 08:28:09;;;;;;;6.00;4.87;;;11.90;63.70;;;;;;8385390;28;20555;-75
2021/04/12 08:32:52;;;;;;;13.37;7.90;;;11.20;67.50;;;;;;8400761;28;20443;-75
2021/04/12 08:37:11;;;;;;;9.77;8.40;;;10.60;71.70;;;;;;8380596;28;20487;-76
2021/04/12 08:41:55;;;;;;;9.23;7.87;;;9.90;74.60;;;;;;8400705;28;20450;-75
2021/04/12 08:46:41;;;;;;;18.00;14.07;;;9.20;76.10;;;;;;8399711;28;20466;-76
2021/04/12 08:51:13;;;;;;;28.47;13.53;;;8.40;79.40;;;;;;8348191;28;20442;-75
2021/04/12 08:55:36;;;;;;;14.20;11.83;;;8.00;81.90;;;;;;8389037;28;20449;-76
2021/04/12 09:00:05;;;;;;;10.20;8.97;;;8.60;84.30;;;;;;8397624;28;20444;-76
2021/04/12 09:04:08;;;;;;;16.30;11.83;;;10.40;79.50;;;;;;8388860;28;20479;-76
2021/04/12 09:08:35;;;;;;;12.20;10.07;;;11.20;76.20;;;;;;8392335;28;20475;-76
2021/04/12 09:13:25;;;;;;;14.97;13.10;;;11.30;75.60;;;;;;8408820;28;20452;-78
2021/04/12 09:17:57;;;;;;;28.63;14.73;;;11.10;75.40;;;;;;8407455;28;20440;-75
2021/04/12 09:22:48;;;;;;;20.37;13.47;;;10.90;77.40;;;;;;8388698;28;20925;-75
2021/04/12 09:27:10;;;;;;;18.97;13.23;;;11.20;75.20;;;;;;8399720;28;20471;-75
2021/04/12 09:31:40;;;;;;;14.53;9.87;;;11.00;74.90;;;;;;8384308;28;20463;-75
2021/04/12 09:35:56;;;;;;;8.67;7.00;;;10.80;73.40;;;;;;8400185;28;20450;-76
2021/04/12 09:39:57;;;;;;;11.97;7.50;;;11.40;72.00;;;;;;8404537;28;20444;-76
2021/04/12 09:44:27;;;;;;;8.50;6.30;;;11.60;70.60;;;;;;8415564;28;20463;-75
2021/04/12 09:48:45;;;;;;;7.53;6.70;;;11.60;69.10;;;;;;8386165;28;20459;-75
2021/04/12 09:52:55;;;;;;;8.33;7.43;;;11.50;70.60;;;;;;8392748;28;20466;-76
2021/04/12 09:57:40;;;;;;;6.90;6.20;;;11.40;70.50;;;;;;8390048;28;20481;-76
2021/04/12 10:07:10;;;;;;;6.17;4.30;;;11.00;72.10;;;;;;8409507;28;20454;-75
2021/04/12 10:11:25;;;;;;;5.47;4.00;;;11.40;73.00;;;;;;8301983;28;20534;-75
2021/04/12 10:16:04;;;;;;;6.80;4.10;;;11.90;69.10;;;;;;8414667;28;20439;-75
2021/04/12 10:20:13;;;;;;;6.27;4.77;;;12.40;67.00;;;;;;8384736;28;20470;-75
2021/04/12 10:24:27;;;;;;;8.07;6.77;;;12.70;66.30;;;;;;8393134;28;20515;-75
2021/04/12 10:28:45;;;;;;;2.60;2.40;;;12.90;62.90;;;;;;8400998;28;20440;-76
2021/04/12 10:32:49;;;;;;;1.47;1.37;;;13.30;67.00;;;;;;8403250;28;20498;-75
2021/04/12 10:37:32;;;;;;;2.40;2.27;;;14.00;65.40;;;;;;8388751;28;20542;-75
2021/04/12 10:41:51;;;;;;;2.23;2.13;;;14.10;64.90;;;;;;8356945;28;21100;-75
2021/04/12 10:46:32;;;;;;;3.50;3.20;;;14.70;65.80;;;;;;8392086;28;20912;-76
2021/04/12 10:50:56;;;;;;;4.60;4.10;;;14.90;63.80;;;;;;8384656;28;20526;-75
2021/04/12 10:55:31;;;;;;;5.17;4.70;;;15.30;61.50;;;;;;8395459;28;20801;-76
2021/04/12 11:00:03;;;;;;;9.10;5.33;;;15.10;62.50;;;;;;8392852;28;20474;-76
2021/04/12 11:04:29;;;;;;;11.13;5.30;;;14.70;61.90;;;;;;8391444;28;20995;-76
2021/04/12 11:09:06;;;;;;;8.43;5.20;;;15.00;62.50;;;;;;8404183;28;20487;-76
2021/04/12 11:13:42;;;;;;;5.70;4.10;;;15.10;59.50;;;;;;8409313;28;21268;-75
2021/04/12 11:18:16;;;;;;;5.60;3.70;;;14.20;60.60;;;;;;8386510;28;20441;-74
2021/04/12 11:22:48;;;;;;;4.80;2.67;;;13.10;63.50;;;;;;8384172;28;20868;-74
2021/04/12 11:27:14;;;;;;;3.70;3.33;;;13.30;60.90;;;;;;8395906;28;20475;-76
2021/04/12 11:31:32;;;;;;;4.57;3.60;;;13.40;62.40;;;;;;8386635;28;20461;-76
2021/04/12 11:35:42;;;;;;;7.73;3.80;;;14.10;60.80;;;;;;8392114;28;20534;-74
2021/04/12 11:39:59;;;;;;;5.27;3.50;;;14.60;60.90;;;;;;8389039;28;20472;-74
2021/04/12 11:44:07;;;;;;;4.60;3.90;;;14.80;58.50;;;;;;8389715;28;20876;-76
2021/04/12 11:48:15;;;;;;;3.73;3.43;;;15.00;57.50;;;;;;8386488;28;20789;-76
2021/04/12 11:52:28;;;;;;;4.93;3.77;;;15.20;54.50;;;;;;8390060;28;20555;-75
2021/04/12 11:57:06;;;;;;;5.73;5.00;;;14.90;53.00;;;;;;8390166;28;20520;-76
2021/04/12 12:01:19;;;;;;;4.77;4.27;;;14.00;54.90;;;;;;8390458;28;20513;-76
2021/04/12 12:05:34;;;;;;;4.00;3.60;;;13.20;56.20;;;;;;8395659;28;20474;-74
2021/04/12 12:09:47;;;;;;;3.87;3.57;;;12.90;54.80;;;;;;8405518;28;20468;-75
2021/04/12 12:13:55;;;;;;;4.00;2.83;;;13.60;55.40;;;;;;8400657;28;20454;-74
2021/04/12 12:17:59;;;;;;;3.83;2.90;;;14.80;53.70;;;;;;8388392;28;20542;-75
2021/04/12 12:22:37;;;;;;;3.50;3.20;;;15.10;52.10;;;;;;8397330;28;20440;-76
2021/04/12 12:26:49;;;;;;;3.60;3.30;;;14.10;57.50;;;;;;8390539;28;20464;-74
2021/04/12 12:31:10;;;;;;;4.27;3.90;;;12.10;63.70;;;;;;8401454;28;20436;-73
2021/04/12 12:35:35;;;;;;;4.10;3.27;;;10.40;69.00;;;;;;8414536;28;20455;-75
2021/04/12 12:39:49;;;;;;;4.70;4.03;;;9.50;73.80;;;;;;8395257;28;20458;-74
2021/04/12 12:44:01;;;;;;;3.80;3.50;;;9.40;77.70;;;;;;8387556;28;20504;-76
2021/04/12 12:48:27;;;;;;;3.77;3.47;;;10.00;77.90;;;;;;8392593;28;20442;-76
2021/04/12 12:52:40;;;;;;;3.37;3.10;;;10.60;76.40;;;;;;8400442;28;20451;-75
2021/04/12 12:57:31;;;;;;;3.77;2.10;;;11.60;72.00;;;;;;8416073;28;20457;-74
2021/04/12 13:01:39;;;;;;;1.87;1.77;;;12.50;68.70;;;;;;8348763;28;20543;-76
2021/04/12 13:05:43;;;;;;;6.57;3.07;;;13.20;65.70;;;;;;8368436;28;20491;-75
2021/04/12 13:10:23;;;;;;;6.70;2.37;;;13.40;60.30;;;;;;8387755;28;20700;-74
2021/04/12 13:14:30;;;;;;;3.67;3.33;;;12.60;61.60;;;;;;8374394;28;20466;-75
2021/04/12 13:18:32;;;;;;;7.33;3.00;;;11.30;65.30;;;;;;8384788;28;20450;-75
2021/04/12 13:22:36;;;;;;;3.40;2.90;;;10.20;70.30;;;;;;8386453;28;20466;-75
2021/04/12 13:27:02;;;;;;;2.63;2.30;;;9.50;71.20;;;;;;8393534;28;20486;-75
2021/04/12 13:31:15;;;;;;;3.73;2.17;;;9.00;73.40;;;;;;8388493;28;21339;-74
2021/04/12 13:35:20;;;;;;;2.70;2.50;;;9.30;75.30;;;;;;8380771;28;20455;-74
2021/04/12 13:39:35;;;;;;;3.10;2.90;;;10.10;72.00;;;;;;8402610;28;20440;-75
2021/04/12 13:43:45;;;;;;;3.90;3.40;;;11.20;68.20;;;;;;8385683;28;20511;-74
2021/04/12 13:48:21;;;;;;;3.67;3.47;;;11.50;67.30;;;;;;8394294;28;20444;-74
2021/04/12 13:52:29;;;;;;;5.00;4.37;;;11.20;69.70;;;;;;8369814;28;20446;-75
2021/04/12 13:56:42;;;;;;;3.43;3.10;;;10.90;71.60;;;;;;8401295;28;20488;-74
2021/04/12 14:00:55;;;;;;;2.90;2.80;;;10.90;69.10;;;;;;8392582;28;20448;-75
2021/04/12 14:05:18;;;;;;;4.23;3.93;;;10.80;69.20;;;;;;8391558;28;20489;-75
2021/04/12 14:09:33;;;;;;;3.47;3.17;;;10.60;69.20;;;;;;8412792;28;20485;-76
2021/04/12 14:13:46;;;;;;;4.93;4.50;;;10.50;69.90;;;;;;8403425;28;20444;-74
2021/04/12 14:18:01;;;;;;;6.17;5.57;;;10.30;70.40;;;;;;8393692;28;20448;-74
2021/04/12 14:22:07;;;;;;;4.30;3.93;;;10.00;71.90;;;;;;8386327;28;20445;-74
2021/04/12 14:26:22;;;;;;;8.80;5.23;;;9.80;71.40;;;;;;8393150;28;20472;-74
2021/04/12 14:30:23;;;;;;;5.23;4.40;;;9.90;72.50;;;;;;8400127;28;20445;-77
2021/04/12 14:34:41;;;;;;;5.73;5.20;;;10.30;71.60;;;;;;8391990;28;20495;-74
2021/04/12 14:38:47;;;;;;;7.33;5.30;;;10.40;69.90;;;;;;8379349;28;20491;-75
2021/04/12 14:42:56;;;;;;;8.73;5.13;;;10.30;69.90;;;;;;8395525;28;20454;-74
2021/04/12 14:47:01;;;;;;;6.07;5.47;;;10.50;70.10;;;;;;8383582;28;20468;-73
2021/04/12 14:51:15;;;;;;;5.67;5.17;;;11.00;70.00;;;;;;8395999;28;20589;-73
2021/04/12 14:55:18;;;;;;;6.53;5.00;;;11.70;68.00;;;;;;8392394;28;20535;-73
2021/04/12 15:00:18;;;;;;;5.37;5.03;;;12.00;65.80;;;;;;8394233;28;20439;-75
2021/04/12 15:04:24;;;;;;;10.50;6.10;;;11.90;65.00;;;;;;8369479;28;20468;-74
2021/04/12 15:08:53;;;;;;;7.57;6.77;;;12.00;65.20;;;;;;8381078;28;20467;-74
2021/04/12 15:13:35;;;;;;;6.07;5.60;;;11.90;62.80;;;;;;8377261;28;20471;-74
2021/04/12 15:17:39;;;;;;;7.23;5.60;;;12.10;63.20;;;;;;8382838;28;20490;-74
2021/04/12 15:21:51;;;;;;;8.20;5.40;;;12.70;62.20;;;;;;8387271;28;20886;-73
2021/04/12 15:26:20;;;;;;;8.07;6.10;;;12.70;59.50;;;;;;8387001;28;20472;-75
2021/04/12 15:30:21;;;;;;;4.67;4.27;;;12.20;61.50;;;;;;8395735;28;20444;-74
2021/04/12 15:34:43;;;;;;;4.17;3.80;;;11.60;61.50;;;;;;8389635;28;20947;-73
2021/04/12 15:38:46;;;;;;;2.87;2.67;;;11.10;60.70;;;;;;8391200;28;20611;-73
2021/04/12 15:43:00;;;;;;;3.87;3.40;;;10.80;59.10;;;;;;8393959;28;20455;-73
2021/04/12 15:47:15;;;;;;;5.13;3.50;;;10.60;59.60;;;;;;8415626;28;20482;-76
2021/04/12 15:51:29;;;;;;;5.73;3.57;;;10.60;60.60;;;;;;8399326;28;20440;-73
2021/04/12 15:55:35;;;;;;;4.30;4.00;;;11.00;58.20;;;;;;8389402;28;21038;-74
2021/04/12 16:00:00;;;;;;;5.20;4.80;;;11.30;61.70;;;;;;8396235;28;21047;-75
2021/04/12 16:04:03;;;;;;;4.50;3.83;;;11.30;60.30;;;;;;8386271;28;20529;-76
2021/04/12 16:08:38;;;;;;;6.47;4.80;;;11.40;61.70;;;;;;8390227;28;20460;-75
2021/04/12 16:13:14;;;;;;;6.10;4.50;;;11.60;61.10;;;;;;8390110;28;20830;-74
2021/04/12 16:17:24;;;;;;;6.17;4.10;;;11.70;61.20;;;;;;8386076;28;20445;-74
2021/04/12 16:21:32;;;;;;;5.07;4.03;;;11.90;60.80;;;;;;8385498;28;20460;-75
2021/04/12 16:25:59;;;;;;;3.87;3.50;;;12.00;59.30;;;;;;8382842;28;20805;-74
2021/04/12 16:30:10;;;;;;;5.20;3.67;;;11.90;58.70;;;;;;8419139;28;20805;-75
2021/04/12 16:34:22;;;;;;;4.47;4.07;;;11.50;59.80;;;;;;8392781;28;20499;-76
2021/04/12 16:38:26;;;;;;;3.40;3.10;;;11.10;61.40;;;;;;8407883;28;20476;-76
2021/04/12 16:42:35;;;;;;;5.00;4.17;;;10.70;62.10;;;;;;8406684;28;20592;-77
2021/04/12 16:46:53;;;;;;;6.03;4.87;;;10.60;62.90;;;;;;8418916;28;20466;-77
2021/04/12 16:51:14;;;;;;;3.60;3.30;;;10.50;63.00;;;;;;8406785;28;20437;-77
2021/04/12 16:55:30;;;;;;;4.30;3.93;;;10.40;62.90;;;;;;8420050;28;20434;-79
2021/04/12 17:00:05;;;;;;;5.30;3.77;;;10.10;60.70;;;;;;8410480;28;20877;-79
2021/04/12 17:04:37;;;;;;;4.30;3.90;;;9.70;62.50;;;;;;8398120;28;20447;-76
2021/04/12 17:09:03;;;;;;;6.60;4.40;;;9.30;63.10;;;;;;8395633;28;20461;-76
2021/04/12 17:13:18;;;;;;;6.07;4.40;;;9.20;62.60;;;;;;8413273;28;20514;-77
2021/04/12 17:17:34;;;;;;;4.93;4.30;;;9.10;63.80;;;;;;8410770;28;20537;-76
2021/04/12 17:21:44;;;;;;;7.40;4.53;;;8.90;64.70;;;;;;8409978;28;20442;-75
2021/04/12 17:25:51;;;;;;;7.33;4.70;;;8.70;64.40;;;;;;8393936;28;20468;-77
2021/04/12 17:29:55;;;;;;;6.23;4.70;;;8.50;64.20;;;;;;8392495;28;20451;-77
2021/04/12 17:34:19;;;;;;;8.37;5.53;;;8.30;64.80;;;;;;8400468;28;20930;-77
2021/04/12 17:38:27;;;;;;;6.10;5.60;;;8.20;65.90;;;;;;8404407;28;20474;-75
